createdAt,value
2023-02-09T00:00:14.381Z,15.11
2023-02-09T00:02:44.524Z,15.03
2023-02-09T00:05:13.571Z,15.00
2023-02-09T00:07:42.866Z,15.02
2023-02-09T00:10:12.089Z,15.06
2023-02-09T00:12:59.873Z,14.94
2023-02-09T00:15:29.128Z,14.81
2023-02-09T00:17:58.147Z,14.85
2023-02-09T00:20:27.449Z,14.82
2023-02-09T00:22:56.503Z,14.83
2023-02-09T00:25:25.741Z,14.82
2023-02-09T00:27:55.115Z,14.85
2023-02-09T00:30:24.580Z,14.92
2023-02-09T00:32:53.624Z,14.83
2023-02-09T00:35:23.018Z,14.72
2023-02-09T00:37:52.060Z,14.61
2023-02-09T00:40:21.440Z,14.60
2023-02-09T00:42:50.439Z,14.57
2023-02-09T00:45:19.918Z,14.54
2023-02-09T00:47:48.964Z,14.52
2023-02-09T00:50:18.480Z,14.59
2023-02-09T00:52:47.594Z,14.62
2023-02-09T00:55:18.223Z,14.62
2023-02-09T00:57:47.457Z,14.63
2023-02-09T01:00:19.551Z,14.70
2023-02-09T01:02:50.797Z,14.62
2023-02-09T01:05:23.709Z,14.58
2023-02-09T01:07:57.891Z,14.57
2023-02-09T01:10:29.498Z,14.59
2023-02-09T01:13:01.678Z,14.43
2023-02-09T01:15:32.984Z,14.36
2023-02-09T01:18:04.030Z,14.47
2023-02-09T01:20:34.370Z,14.49
2023-02-09T01:23:04.900Z,14.54
2023-02-09T01:25:34.917Z,14.60
2023-02-09T01:28:04.948Z,14.60
2023-02-09T01:30:36.257Z,14.65
2023-02-09T01:33:06.324Z,14.61
2023-02-09T01:35:36.215Z,14.69
2023-02-09T01:38:06.322Z,14.64
2023-02-09T01:40:37.760Z,14.72
2023-02-09T01:43:09.029Z,14.64
2023-02-09T01:45:56.186Z,14.83
2023-02-09T01:48:30.436Z,14.79
2023-02-09T01:51:03.079Z,14.72
2023-02-09T01:53:32.239Z,14.96
2023-02-09T01:56:26.006Z,14.87
2023-02-09T01:58:57.371Z,14.69
2023-02-09T02:01:28.580Z,14.68
2023-02-09T02:03:58.781Z,14.65
2023-02-09T02:06:28.685Z,14.72
2023-02-09T02:09:04.569Z,14.71
2023-02-09T02:11:34.521Z,14.55
2023-02-09T02:14:04.160Z,14.44
2023-02-09T02:16:50.689Z,14.38
2023-02-09T02:20:01.259Z,14.45
2023-02-09T02:23:19.747Z,14.43
2023-02-09T02:26:21.448Z,14.35
2023-02-09T02:29:08.106Z,14.44
2023-02-09T02:32:03.937Z,14.64
2023-02-09T02:35:09.569Z,14.69
2023-02-09T02:38:03.792Z,14.76
2023-02-09T02:40:54.138Z,14.61
2023-02-09T02:43:54.729Z,14.81
2023-02-09T02:46:50.365Z,14.91
2023-02-09T02:49:44.136Z,15.14
2023-02-09T02:52:14.008Z,15.11
2023-02-09T02:54:51.386Z,15.25
2023-02-09T02:57:25.088Z,15.35
2023-02-09T03:00:08.457Z,15.59
2023-02-09T03:02:46.205Z,15.70
2023-02-09T03:05:18.155Z,15.59
2023-02-09T03:07:48.282Z,15.66
2023-02-09T03:10:36.252Z,15.94
2023-02-09T03:13:14.076Z,15.85
2023-02-09T03:16:20.535Z,16.05
2023-02-09T03:19:03.148Z,16.06
2023-02-09T03:21:38.873Z,16.17
2023-02-09T03:24:31.233Z,16.30
2023-02-09T03:27:11.748Z,16.33
2023-02-09T03:29:45.599Z,16.28
2023-02-09T03:32:17.349Z,16.20
2023-02-09T03:34:47.952Z,16.39
2023-02-09T03:37:19.341Z,16.29
2023-02-09T03:39:51.053Z,16.44
2023-02-09T03:42:21.977Z,16.42
2023-02-09T03:44:51.885Z,16.44
2023-02-09T03:47:21.540Z,16.37
2023-02-09T03:49:51.678Z,16.46
2023-02-09T03:52:21.762Z,16.54
2023-02-09T03:54:51.850Z,16.46
2023-02-09T03:57:21.881Z,16.53
2023-02-09T03:59:51.718Z,16.47
2023-02-09T04:02:21.724Z,16.74
2023-02-09T04:04:52.073Z,16.82
2023-02-09T04:07:28.002Z,17.03
2023-02-09T04:09:58.013Z,17.01
2023-02-09T04:12:27.867Z,17.21
2023-02-09T04:14:57.856Z,17.36
2023-02-09T04:17:27.813Z,17.49
2023-02-09T04:19:57.848Z,17.57
2023-02-09T04:22:28.408Z,17.61
2023-02-09T04:24:58.458Z,17.59
2023-02-09T04:27:29.685Z,17.69
2023-02-09T04:29:59.913Z,17.91
2023-02-09T04:32:30.032Z,18.10
2023-02-09T04:34:59.967Z,18.08
2023-02-09T04:37:29.947Z,18.20
2023-02-09T04:39:59.525Z,18.24
2023-02-09T04:42:30.066Z,18.36
2023-02-09T04:45:00.669Z,18.33
2023-02-09T04:47:30.878Z,18.26
2023-02-09T04:50:00.968Z,18.17
2023-02-09T04:52:31.069Z,18.34
2023-02-09T04:55:01.289Z,18.48
2023-02-09T04:57:50.122Z,18.54
2023-02-09T05:00:21.587Z,18.72
2023-02-09T05:02:51.558Z,18.84
2023-02-09T05:05:22.340Z,19.05
2023-02-09T05:07:52.526Z,19.10
2023-02-09T05:10:22.703Z,19.26
2023-02-09T05:12:53.881Z,19.36
2023-02-09T05:15:23.942Z,19.39
2023-02-09T05:17:53.950Z,19.23
2023-02-09T05:20:23.639Z,19.36
2023-02-09T05:22:53.770Z,19.31
2023-02-09T05:25:23.883Z,19.41
2023-02-09T05:27:53.974Z,19.45
2023-02-09T05:30:24.120Z,19.51
2023-02-09T05:32:54.284Z,19.57
2023-02-09T05:35:24.208Z,19.68
2023-02-09T05:37:54.347Z,19.88
2023-02-09T05:40:24.544Z,20.05
2023-02-09T05:42:54.682Z,20.00
2023-02-09T05:45:24.927Z,20.15
2023-02-09T05:47:54.670Z,20.10
2023-02-09T05:50:24.988Z,20.11
2023-02-09T05:53:00.237Z,20.19
2023-02-09T05:55:30.403Z,20.20
2023-02-09T05:58:00.523Z,19.97
2023-02-09T06:00:30.968Z,19.97
2023-02-09T06:03:01.253Z,19.82
2023-02-09T06:05:31.230Z,20.01
2023-02-09T06:08:01.281Z,20.13
2023-02-09T06:10:31.012Z,20.16
2023-02-09T06:13:01.116Z,20.03
2023-02-09T06:15:31.263Z,20.08
2023-02-09T06:18:02.623Z,20.21
2023-02-09T06:20:32.745Z,20.19
2023-02-09T06:23:02.872Z,20.24
2023-02-09T06:25:32.767Z,20.25
2023-02-09T06:28:03.550Z,20.32
2023-02-09T06:30:33.434Z,20.31
2023-02-09T06:33:02.914Z,20.44
2023-02-09T06:35:33.132Z,20.55
2023-02-09T06:38:03.259Z,20.64
2023-02-09T06:40:33.352Z,20.69
2023-02-09T06:43:03.964Z,20.66
2023-02-09T06:45:34.145Z,20.65
2023-02-09T09:42:03.216Z,21.12
2023-02-09T09:44:38.751Z,21.33
2023-02-09T09:47:13.592Z,21.25
2023-02-09T09:49:42.970Z,21.17
2023-02-09T09:52:40.328Z,21.18
2023-02-09T09:55:16.152Z,21.15
2023-02-09T09:58:40.530Z,21.17
2023-02-09T10:01:18.853Z,21.13
2023-02-09T10:03:48.330Z,20.83
2023-02-09T10:06:23.030Z,20.91
2023-02-09T10:09:35.982Z,20.90
2023-02-09T10:12:26.615Z,20.80
2023-02-09T10:14:56.017Z,20.66
2023-02-09T10:17:24.872Z,20.70
2023-02-09T10:20:08.490Z,20.80
2023-02-09T10:22:37.754Z,20.75
2023-02-09T10:25:49.879Z,20.81
2023-02-09T10:28:27.764Z,20.86
2023-02-09T10:31:00.051Z,20.60
2023-02-09T10:33:39.279Z,20.63
2023-02-09T10:36:22.829Z,20.59
2023-02-09T10:38:52.617Z,20.56
2023-02-09T10:41:23.896Z,20.67
2023-02-09T10:43:54.036Z,20.67
2023-02-09T10:46:23.759Z,20.48
2023-02-09T10:48:52.572Z,20.51
2023-02-09T10:51:34.791Z,20.53
2023-02-09T10:54:08.282Z,20.48
2023-02-09T10:56:43.961Z,20.59
2023-02-09T10:59:25.847Z,20.56
2023-02-09T11:02:03.510Z,20.66
2023-02-09T11:04:40.045Z,20.57
2023-02-09T11:07:16.257Z,20.55
2023-02-09T11:09:50.130Z,20.61
2023-02-09T11:12:21.444Z,20.43
2023-02-09T11:14:50.746Z,20.46
2023-02-09T11:17:37.565Z,20.65
2023-02-09T11:20:19.223Z,20.62
2023-02-09T11:22:48.507Z,20.43
2023-02-09T11:25:26.717Z,20.73
2023-02-09T11:28:25.029Z,20.69
2023-02-09T11:31:18.128Z,20.58
2023-02-09T11:34:08.947Z,20.59
2023-02-09T11:36:57.913Z,20.59
2023-02-09T11:39:40.704Z,20.57
2023-02-09T11:42:33.838Z,20.70
2023-02-09T11:45:32.007Z,20.52
2023-02-09T11:48:12.416Z,20.35
2023-02-09T11:51:08.744Z,20.62
2023-02-09T11:53:44.244Z,20.50
2023-02-09T11:56:19.327Z,20.34
2023-02-09T11:59:15.806Z,20.47
2023-02-09T12:01:51.250Z,20.49
2023-02-09T12:04:38.904Z,20.49
2023-02-09T12:07:32.808Z,20.50
2023-02-09T12:10:04.983Z,20.27
2023-02-09T12:13:00.134Z,20.37
2023-02-09T12:15:50.983Z,20.20
2023-02-09T12:18:27.259Z,20.16
2023-02-09T12:21:02.664Z,20.20
2023-02-09T12:23:39.051Z,20.29
2023-02-09T12:26:17.728Z,20.19
2023-02-09T12:29:04.556Z,20.08
2023-02-09T12:32:08.895Z,20.13
2023-02-09T12:34:47.631Z,20.19
2023-02-09T12:37:27.455Z,19.95
2023-02-09T12:40:19.376Z,19.94
2023-02-09T12:43:11.690Z,20.02
2023-02-09T12:45:44.017Z,19.88
2023-02-09T12:48:16.350Z,19.88
2023-02-09T12:50:47.468Z,19.77
2023-02-09T12:53:25.802Z,19.84
2023-02-09T12:56:10.352Z,19.83
2023-02-09T12:58:44.981Z,19.75
2023-02-09T13:01:16.587Z,19.56
2023-02-09T13:04:04.642Z,19.74
2023-02-09T13:06:52.667Z,19.70
2023-02-09T13:09:30.408Z,19.61
2023-02-09T13:12:05.994Z,19.59
2023-02-09T13:14:35.314Z,19.44
2023-02-09T13:17:10.128Z,19.54
2023-02-09T13:20:12.478Z,19.61
2023-02-09T13:23:07.675Z,19.58
2023-02-09T13:25:40.124Z,19.61
2023-02-09T13:28:19.591Z,19.76
2023-02-09T13:30:49.078Z,19.56
2023-02-09T13:33:49.646Z,19.74
2023-02-09T13:37:00.938Z,19.76
2023-02-09T13:39:40.675Z,19.63
2023-02-09T13:42:27.085Z,19.75
2023-02-09T13:45:00.810Z,19.63
2023-02-09T13:47:30.432Z,19.65
2023-02-09T13:50:24.695Z,19.80
2023-02-09T13:52:54.103Z,19.56
2023-02-09T13:55:24.428Z,19.57
2023-02-09T13:58:01.905Z,19.68
2023-02-09T14:00:51.063Z,19.71
2023-02-09T14:03:27.698Z,19.59
2023-02-09T14:06:16.160Z,19.50
2023-02-09T14:08:48.770Z,19.36
2023-02-09T14:11:42.656Z,19.45
2023-02-09T14:14:16.686Z,19.29
2023-02-09T14:16:53.504Z,19.28
2023-02-09T14:19:33.719Z,19.40
2023-02-09T14:22:03.024Z,19.09
2023-02-09T14:24:52.514Z,19.34
2023-02-09T14:27:27.590Z,19.25
2023-02-09T14:29:57.820Z,19.09
2023-02-09T14:32:37.321Z,19.02
2023-02-09T14:35:40.395Z,19.19
2023-02-09T14:38:48.777Z,19.14
2023-02-09T14:41:34.099Z,18.99
2023-02-09T14:44:09.299Z,19.01
2023-02-09T14:46:59.367Z,18.98
2023-02-09T14:49:30.304Z,18.81
2023-02-09T14:52:14.781Z,18.92
2023-02-09T14:54:49.636Z,18.86
2023-02-09T14:57:19.186Z,18.62
2023-02-09T14:59:48.038Z,18.63
2023-02-09T15:02:21.251Z,18.73
2023-02-09T15:04:50.536Z,18.57
2023-02-09T15:07:36.543Z,18.76
2023-02-09T15:10:09.173Z,18.63
2023-02-09T15:12:38.299Z,18.54
2023-02-09T15:15:07.296Z,18.44
2023-02-09T15:17:36.652Z,18.26
2023-02-09T15:20:05.797Z,18.27
2023-02-09T15:22:34.694Z,18.28
2023-02-09T15:25:03.663Z,18.25
2023-02-09T15:28:03.991Z,18.47
2023-02-09T15:30:35.905Z,18.30
2023-02-09T15:33:07.436Z,18.11
2023-02-09T15:35:36.644Z,18.06
2023-02-09T15:38:05.528Z,17.95
2023-02-09T15:41:04.020Z,18.07
2023-02-09T15:43:51.501Z,17.88
2023-02-09T15:46:39.441Z,17.85
2023-02-09T15:49:08.686Z,17.85
2023-02-09T15:51:40.403Z,18.00
2023-02-09T15:54:24.041Z,18.01
2023-02-09T15:56:53.659Z,17.90
2023-02-09T15:59:24.927Z,17.69
2023-02-09T16:01:54.437Z,17.65
2023-02-09T16:04:23.378Z,17.51
2023-02-09T16:06:54.762Z,17.72
2023-02-09T16:09:28.557Z,17.78
2023-02-09T16:11:58.233Z,17.72
2023-02-09T16:14:28.470Z,17.52
2023-02-09T16:16:57.456Z,17.53
2023-02-09T16:19:26.293Z,17.63
2023-02-09T16:21:58.908Z,17.67
2023-02-09T16:24:43.031Z,17.63
2023-02-09T16:27:28.960Z,17.62
2023-02-09T16:29:59.127Z,17.49
2023-02-09T16:32:29.522Z,17.48
2023-02-09T16:35:11.120Z,17.53
2023-02-09T16:37:48.095Z,17.61
2023-02-09T16:40:26.022Z,17.53
2023-02-09T16:42:56.383Z,17.53
2023-02-09T16:45:26.977Z,17.49
2023-02-09T16:47:59.355Z,17.52
2023-02-09T16:50:53.948Z,17.70
2023-02-09T16:53:34.196Z,17.67
2023-02-09T16:56:11.066Z,17.62
2023-02-09T16:58:40.987Z,17.50
2023-02-09T17:01:18.409Z,17.66
2023-02-09T17:03:58.036Z,17.67
2023-02-09T17:06:31.305Z,17.62
2023-02-09T17:09:00.955Z,17.50
2023-02-09T17:11:30.331Z,17.55
2023-02-09T17:13:59.742Z,17.51
2023-02-09T17:16:34.202Z,17.61
2023-02-09T17:19:04.906Z,17.53
2023-02-09T17:21:40.482Z,17.58
2023-02-09T17:24:27.738Z,17.66
2023-02-09T17:26:57.332Z,17.47
2023-02-09T17:29:26.756Z,17.37
2023-02-09T17:31:55.900Z,17.44
2023-02-09T17:34:28.088Z,17.46
2023-02-09T17:36:58.225Z,17.52
2023-02-09T17:39:28.151Z,17.50
2023-02-09T17:41:59.739Z,17.45
2023-02-09T17:44:45.123Z,17.52
2023-02-09T17:47:21.044Z,17.68
2023-02-09T17:49:50.530Z,17.53
2023-02-09T17:52:21.125Z,17.58
2023-02-09T17:54:52.015Z,17.53
2023-02-09T17:57:22.052Z,17.52
2023-02-09T17:59:51.332Z,17.55
2023-02-09T18:02:21.512Z,17.46
2023-02-09T18:04:50.816Z,17.49
2023-02-09T18:07:21.634Z,17.50
2023-02-09T18:09:51.317Z,17.50
2023-02-09T18:12:23.710Z,17.58
2023-02-09T18:14:53.020Z,17.52
2023-02-09T18:17:22.151Z,17.54
2023-02-09T18:19:51.611Z,17.53
2023-02-09T18:22:21.053Z,17.41
2023-02-09T18:24:51.563Z,17.53
2023-02-09T18:27:22.023Z,17.54
2023-02-09T18:29:51.363Z,17.45
2023-02-09T18:32:21.966Z,17.41
2023-02-09T18:34:51.899Z,17.43
2023-02-09T18:37:20.852Z,17.38
2023-02-09T18:39:50.269Z,17.39
2023-02-09T18:42:19.322Z,17.34
2023-02-09T18:44:48.625Z,17.34
2023-02-09T18:47:17.598Z,17.30
2023-02-09T18:49:46.852Z,17.28
2023-02-09T18:52:18.129Z,17.26
2023-02-09T18:54:47.782Z,17.24
2023-02-09T18:57:16.603Z,17.23
2023-02-09T18:59:47.856Z,17.17
2023-02-09T19:02:17.377Z,17.18
2023-02-09T19:04:46.415Z,17.20
2023-02-09T19:07:17.134Z,17.18
2023-02-09T19:09:46.910Z,17.20
2023-02-09T19:12:15.800Z,17.15
2023-02-09T19:14:47.542Z,17.13
2023-02-09T19:17:19.433Z,17.17
2023-02-09T19:19:49.909Z,17.17
2023-02-09T19:22:21.930Z,17.15
2023-02-09T19:24:53.277Z,17.10
2023-02-09T19:27:22.641Z,17.07
2023-02-09T19:29:55.855Z,17.08
2023-02-09T19:32:27.329Z,16.97
2023-02-09T19:34:56.783Z,16.86
2023-02-09T19:37:25.753Z,16.85
2023-02-09T19:40:04.617Z,16.85
2023-02-09T19:42:34.966Z,16.86
2023-02-09T19:45:04.441Z,16.84
2023-02-09T19:47:33.477Z,16.76
2023-02-09T19:50:02.910Z,16.75
2023-02-09T19:52:32.030Z,16.80
2023-02-09T19:55:01.365Z,16.78
2023-02-09T19:57:30.492Z,16.79
2023-02-09T19:59:59.560Z,16.76
2023-02-09T20:02:28.629Z,16.78
2023-02-09T20:04:57.750Z,16.79
2023-02-09T20:07:27.077Z,16.81
2023-02-09T20:09:58.072Z,16.73
2023-02-09T20:12:27.456Z,16.69
2023-02-09T20:14:56.578Z,16.66
2023-02-09T20:17:26.105Z,16.72
2023-02-09T20:19:55.797Z,16.63
2023-02-09T20:22:24.940Z,16.60
2023-02-09T20:24:54.450Z,16.69
2023-02-09T20:27:24.824Z,16.70
2023-02-09T20:29:58.159Z,16.64
2023-02-09T20:32:27.369Z,16.72
2023-02-09T20:34:56.636Z,16.69
2023-02-09T20:37:26.001Z,16.56
2023-02-09T20:39:55.384Z,16.69
2023-02-09T20:42:42.498Z,16.66
2023-02-09T20:45:42.782Z,16.84
2023-02-09T20:48:12.271Z,16.70
2023-02-09T20:50:41.225Z,16.67
2023-02-09T20:53:10.669Z,16.62
2023-02-09T20:55:39.452Z,16.64
2023-02-09T20:58:09.489Z,16.67
2023-02-09T21:00:39.000Z,16.60
2023-02-09T21:03:08.541Z,16.64
2023-02-09T21:05:37.429Z,16.67
2023-02-09T21:08:08.730Z,16.69
2023-02-09T21:10:39.283Z,16.69
2023-02-09T21:13:09.766Z,16.66
2023-02-09T21:15:43.389Z,16.84
2023-02-09T21:18:12.975Z,16.77
2023-02-09T21:20:41.815Z,16.78
2023-02-09T21:23:11.304Z,16.77
2023-02-09T21:25:40.202Z,16.72
2023-02-09T21:28:09.619Z,16.66
2023-02-09T21:30:43.519Z,16.86
2023-02-09T21:33:12.639Z,16.75
2023-02-09T21:35:42.314Z,16.78
2023-02-09T21:38:11.467Z,16.73
2023-02-09T21:40:40.506Z,16.75
2023-02-09T21:43:09.720Z,16.77
2023-02-09T21:45:41.626Z,16.78
2023-02-09T21:48:11.036Z,16.73
2023-02-09T21:50:40.562Z,16.72
2023-02-09T21:53:09.960Z,16.71
2023-02-09T21:55:38.923Z,16.55
2023-02-09T21:58:08.004Z,16.63
2023-02-09T22:00:37.046Z,16.50
2023-02-09T22:03:06.284Z,16.50
2023-02-09T22:05:35.181Z,16.45
2023-02-09T22:08:04.576Z,16.67
2023-02-09T22:10:33.452Z,16.68
2023-02-09T22:13:09.341Z,16.65
2023-02-09T22:15:42.210Z,16.83
2023-02-09T22:18:11.881Z,16.66
2023-02-09T22:20:45.674Z,16.79
2023-02-09T22:23:15.620Z,16.71
2023-02-09T22:25:44.778Z,16.71
2023-02-09T22:28:14.890Z,16.70
2023-02-09T22:30:44.423Z,16.56
2023-02-09T22:33:13.675Z,16.56
2023-02-09T22:35:44.017Z,16.60
2023-02-09T22:38:13.561Z,16.47
2023-02-09T22:40:42.605Z,16.50
2023-02-09T22:43:11.823Z,16.52
2023-02-09T22:45:41.324Z,16.29
2023-02-09T22:48:12.223Z,16.31
2023-02-09T22:50:41.869Z,16.30
2023-02-09T22:53:10.999Z,16.39
2023-02-09T22:55:40.390Z,16.16
2023-02-09T22:58:09.738Z,16.18
2023-02-09T23:00:39.088Z,16.19
2023-02-09T23:03:08.261Z,16.24
2023-02-09T23:05:37.613Z,16.22
2023-02-09T23:08:06.922Z,16.28
2023-02-09T23:10:36.038Z,16.30
2023-02-09T23:13:04.822Z,16.25
2023-02-09T23:15:34.290Z,16.32
2023-02-09T23:18:03.256Z,16.36
2023-02-09T23:20:32.292Z,16.42
2023-02-09T23:23:07.366Z,16.44
2023-02-09T23:25:36.919Z,16.41
2023-02-09T23:28:05.972Z,16.34
2023-02-09T23:30:35.622Z,16.48
2023-02-09T23:33:04.735Z,16.49
2023-02-09T23:35:33.770Z,16.43
2023-02-09T23:38:02.723Z,16.42
2023-02-09T23:40:32.597Z,16.43
2023-02-09T23:43:01.717Z,16.44
2023-02-09T23:45:31.060Z,16.42
2023-02-09T23:48:00.272Z,16.39
2023-02-09T23:50:29.924Z,16.45
2023-02-09T23:52:58.999Z,16.48
2023-02-09T23:55:28.393Z,16.45
2023-02-09T23:57:57.357Z,16.44
